createdAt,value
2023-06-25T00:02:21.839Z,2.88
2023-06-25T00:04:49.534Z,3.20
2023-06-25T00:07:18.063Z,3.83
2023-06-25T00:09:53.430Z,3.83
2023-06-25T00:12:21.051Z,3.72
2023-06-25T00:14:50.115Z,3.17
2023-06-25T00:17:18.392Z,3.45
2023-06-25T00:19:46.413Z,3.40
2023-06-25T00:22:14.635Z,2.83
2023-06-25T00:24:42.690Z,3.22
2023-06-25T00:27:10.306Z,3.78
2023-06-25T00:29:38.270Z,3.55
2023-06-25T00:32:08.723Z,4.13
2023-06-25T00:34:41.945Z,3.75
2023-06-25T00:37:17.412Z,4.10
2023-06-25T00:39:46.153Z,3.42
2023-06-25T00:42:14.466Z,3.55
2023-06-25T00:44:43.192Z,4.30
2023-06-25T00:47:14.653Z,3.85
2023-06-25T00:49:42.593Z,3.50
2023-06-25T00:52:12.476Z,3.95
2023-06-25T00:54:41.082Z,5.90
2023-06-25T00:57:10.144Z,4.38
2023-06-25T00:59:41.482Z,5.00
2023-06-25T01:02:17.107Z,4.07
2023-06-25T01:04:52.098Z,4.90
2023-06-25T01:07:24.009Z,4.68
2023-06-25T01:09:52.306Z,5.13
2023-06-25T01:12:19.955Z,3.70
2023-06-25T01:14:50.097Z,3.88
2023-06-25T01:17:19.339Z,3.45
2023-06-25T01:19:47.055Z,3.80
2023-06-25T01:22:18.450Z,4.32
2023-06-25T01:24:50.661Z,3.85
2023-06-25T01:27:18.349Z,3.80
2023-06-25T01:29:46.184Z,3.80
2023-06-25T01:32:14.859Z,5.35
2023-06-25T01:34:42.671Z,7.05
2023-06-25T01:37:10.383Z,6.97
2023-06-25T01:39:38.112Z,4.45
2023-06-25T01:42:07.946Z,4.40
2023-06-25T01:44:35.827Z,4.00
2023-06-25T01:47:03.541Z,3.88
2023-06-25T01:49:33.053Z,3.80
2023-06-25T01:52:01.082Z,5.30
2023-06-25T01:54:29.869Z,3.60
2023-06-25T01:56:57.885Z,3.55
2023-06-25T01:59:28.427Z,4.03
2023-06-25T02:01:56.303Z,4.43
2023-06-25T02:04:24.042Z,4.20
2023-06-25T02:06:51.780Z,4.78
2023-06-25T02:09:19.454Z,3.05
2023-06-25T02:11:47.572Z,3.30
2023-06-25T02:14:15.324Z,3.40
2023-06-25T02:16:44.362Z,3.88
2023-06-25T02:19:12.170Z,4.60
2023-06-25T02:21:39.889Z,5.07
2023-06-25T02:24:07.795Z,3.65
2023-06-25T02:26:35.453Z,3.42
2023-06-25T02:29:03.090Z,4.50
2023-06-25T02:31:31.767Z,3.40
2023-06-25T02:34:00.911Z,4.28
2023-06-25T02:36:28.664Z,4.13
2023-06-25T02:38:56.364Z,3.42
2023-06-25T02:41:24.042Z,3.80
2023-06-25T02:43:51.786Z,3.83
2023-06-25T02:46:19.480Z,3.65
2023-06-25T02:48:47.201Z,3.88
2023-06-25T02:51:16.205Z,3.88
2023-06-25T02:53:43.909Z,3.65
2023-06-25T02:56:11.676Z,3.50
2023-06-25T02:58:39.426Z,4.10
2023-06-25T03:01:07.150Z,4.85
2023-06-25T03:03:34.924Z,3.30
2023-06-25T03:06:02.970Z,3.80
2023-06-25T03:08:32.035Z,4.78
2023-06-25T03:10:59.679Z,3.83
2023-06-25T03:13:27.342Z,4.05
2023-06-25T03:15:55.034Z,5.10
2023-06-25T03:18:22.700Z,4.20
2023-06-25T03:20:50.304Z,3.65
2023-06-25T03:23:18.457Z,3.63
2023-06-25T03:25:47.633Z,3.63
2023-06-25T03:28:15.284Z,3.55
2023-06-25T03:30:42.971Z,4.53
2023-06-25T03:33:10.632Z,4.40
2023-06-25T03:35:38.578Z,3.95
2023-06-25T03:38:06.532Z,3.60
2023-06-25T03:40:34.251Z,3.83
2023-06-25T03:43:03.289Z,3.35
2023-06-25T03:45:30.908Z,4.35
2023-06-25T03:47:58.746Z,3.90
2023-06-25T03:50:26.652Z,3.70
2023-06-25T03:52:54.347Z,4.85
2023-06-25T03:55:22.013Z,4.50
2023-06-25T03:57:51.205Z,4.03
2023-06-25T04:00:20.490Z,4.38
2023-06-25T04:02:48.213Z,4.28
2023-06-25T04:05:15.971Z,4.20
2023-06-25T04:07:43.632Z,3.88
2023-06-25T04:10:11.985Z,4.25
2023-06-25T04:12:39.675Z,5.32
2023-06-25T04:15:08.235Z,3.95
2023-06-25T04:17:37.297Z,3.75
2023-06-25T04:20:05.626Z,3.25
2023-06-25T04:22:33.802Z,3.63
2023-06-25T04:25:01.519Z,4.05
2023-06-25T04:27:29.278Z,3.50
2023-06-25T04:29:56.939Z,3.92
2023-06-25T04:32:25.039Z,3.97
2023-06-25T04:34:54.109Z,3.70
2023-06-25T04:37:21.833Z,3.63
2023-06-25T04:39:49.541Z,3.55
2023-06-25T04:42:17.180Z,4.32
2023-06-25T04:44:44.836Z,3.22
2023-06-25T04:47:12.652Z,3.25
2023-06-25T04:49:40.308Z,3.45
2023-06-25T04:52:09.582Z,3.63
2023-06-25T04:54:37.238Z,3.67
2023-06-25T04:57:05.560Z,3.80
2023-06-25T04:59:33.186Z,4.13
2023-06-25T05:02:00.904Z,5.07
2023-06-25T05:04:28.619Z,3.50
2023-06-25T05:06:57.242Z,3.78
2023-06-25T05:09:26.377Z,3.75
2023-06-25T05:11:54.063Z,3.75
2023-06-25T05:14:21.764Z,3.22
2023-06-25T05:16:49.364Z,3.63
2023-06-25T05:19:16.958Z,3.67
2023-06-25T05:21:44.722Z,3.67
2023-06-25T05:24:12.628Z,3.63
2023-06-25T05:26:41.668Z,3.50
2023-06-25T05:29:09.354Z,3.47
2023-06-25T05:31:36.996Z,3.15
2023-06-25T05:34:04.747Z,3.83
2023-06-25T05:36:32.579Z,4.05
2023-06-25T05:39:00.348Z,3.45
2023-06-25T05:41:28.008Z,3.50
2023-06-25T05:43:56.996Z,3.83
2023-06-25T05:46:24.703Z,3.22
2023-06-25T05:48:52.331Z,3.53
2023-06-25T05:51:20.014Z,4.30
2023-06-25T05:53:48.527Z,3.08
2023-06-25T05:56:17.371Z,3.28
2023-06-25T05:58:45.242Z,3.35
2023-06-25T06:01:15.293Z,3.40
2023-06-25T06:03:43.120Z,3.50
2023-06-25T06:06:10.855Z,3.35
2023-06-25T06:08:38.505Z,6.28
2023-06-25T06:11:06.226Z,3.80
2023-06-25T06:13:33.831Z,3.35
2023-06-25T06:16:01.576Z,3.17
2023-06-25T06:18:30.589Z,4.43
2023-06-25T06:20:58.324Z,3.58
2023-06-25T06:23:26.322Z,3.42
2023-06-25T06:25:54.492Z,3.65
2023-06-25T06:28:22.231Z,3.63
2023-06-25T06:30:49.870Z,3.97
2023-06-25T06:33:17.590Z,2.90
2023-06-25T06:35:46.527Z,3.28
2023-06-25T06:38:14.221Z,3.65
2023-06-25T06:40:41.923Z,3.45
2023-06-25T06:43:09.582Z,4.38
2023-06-25T06:45:37.674Z,3.83
2023-06-25T06:48:06.265Z,4.88
2023-06-25T06:50:34.121Z,2.80
2023-06-25T06:53:03.101Z,3.05
2023-06-25T06:55:30.746Z,3.97
2023-06-25T06:57:58.398Z,3.13
2023-06-25T07:00:26.101Z,3.63
2023-06-25T07:02:56.616Z,3.67
2023-06-25T07:05:24.786Z,3.22
2023-06-25T07:07:52.718Z,3.05
2023-06-25T07:10:21.799Z,3.28
2023-06-25T07:12:49.427Z,3.28
2023-06-25T07:15:17.321Z,3.35
2023-06-25T07:17:45.182Z,3.63
2023-06-25T07:20:13.821Z,3.85
2023-06-25T07:22:41.602Z,4.25
2023-06-25T07:25:11.288Z,2.85
2023-06-25T07:27:40.529Z,3.90
2023-06-25T07:30:09.396Z,2.58
2023-06-25T07:32:37.042Z,3.33
2023-06-25T07:35:05.024Z,4.30
2023-06-25T07:37:32.617Z,3.65
2023-06-25T07:40:00.291Z,3.03
2023-06-25T07:42:27.950Z,3.50
2023-06-25T07:44:57.685Z,2.92
2023-06-25T07:47:25.730Z,3.28
2023-06-25T07:49:53.472Z,3.50
2023-06-25T07:52:21.118Z,3.70
2023-06-25T07:54:48.740Z,3.47
2023-06-25T07:57:16.611Z,4.15
2023-06-25T07:59:52.830Z,3.42
2023-06-25T08:02:23.506Z,3.30
2023-06-25T08:04:52.139Z,2.67
2023-06-25T08:07:20.053Z,3.50
2023-06-25T08:09:49.341Z,4.03
2023-06-25T08:12:18.636Z,3.35
2023-06-25T08:14:47.572Z,2.97
2023-06-25T08:17:15.220Z,3.70
2023-06-25T08:19:44.628Z,2.75
2023-06-25T08:22:12.442Z,2.95
2023-06-25T08:24:40.147Z,2.72
2023-06-25T08:27:07.941Z,3.38
2023-06-25T08:29:35.572Z,3.30
2023-06-25T08:32:03.244Z,2.95
2023-06-25T08:34:30.936Z,2.90
2023-06-25T08:36:59.926Z,2.92
2023-06-25T08:39:27.602Z,2.80
2023-06-25T08:41:55.412Z,3.88
2023-06-25T08:44:24.596Z,3.15
2023-06-25T08:46:54.583Z,2.92
2023-06-25T08:49:24.244Z,3.22
2023-06-25T08:51:55.993Z,3.70
2023-06-25T08:54:25.124Z,3.00
2023-06-25T08:56:52.868Z,3.75
2023-06-25T08:59:20.606Z,2.95
2023-06-25T09:01:48.404Z,3.20
2023-06-25T09:04:16.222Z,3.03
2023-06-25T09:07:02.394Z,3.13
2023-06-25T09:09:32.647Z,3.38
2023-06-25T09:12:00.370Z,3.05
2023-06-25T09:14:28.233Z,3.92
2023-06-25T09:16:57.742Z,3.92
2023-06-25T09:19:25.773Z,2.90
2023-06-25T09:21:53.404Z,3.15
2023-06-25T09:24:22.641Z,3.17
2023-06-25T09:26:53.068Z,3.60
2023-06-25T09:29:21.985Z,3.10
2023-06-25T09:31:50.626Z,3.35
2023-06-25T09:34:19.832Z,3.65
2023-06-25T09:36:47.723Z,3.75
2023-06-25T09:39:15.423Z,3.25
2023-06-25T09:41:43.755Z,2.67
2023-06-25T09:44:13.175Z,3.08
2023-06-25T09:46:42.837Z,3.63
2023-06-25T09:49:10.642Z,3.33
2023-06-25T09:51:50.534Z,3.40
2023-06-25T09:54:23.061Z,3.90
2023-06-25T09:56:51.950Z,3.75
2023-06-25T09:59:22.541Z,3.90
2023-06-25T10:01:51.845Z,4.07
2023-06-25T10:04:19.856Z,3.53
2023-06-25T10:06:49.022Z,3.85
2023-06-25T10:09:16.803Z,4.00
2023-06-25T10:11:51.209Z,4.00
2023-06-25T10:14:18.876Z,4.40
2023-06-25T10:16:54.756Z,3.70
2023-06-25T10:19:23.255Z,4.00
2023-06-25T10:22:01.390Z,3.92
2023-06-25T10:24:39.557Z,3.25
2023-06-25T10:27:07.201Z,2.92
2023-06-25T10:29:40.900Z,3.78
2023-06-25T10:32:10.069Z,4.03
2023-06-25T10:34:38.662Z,3.63
2023-06-25T10:37:07.069Z,3.63
2023-06-25T10:39:38.880Z,3.50
2023-06-25T10:42:07.632Z,3.53
2023-06-25T10:44:35.923Z,3.95
2023-06-25T10:47:04.745Z,4.18
2023-06-25T10:49:33.798Z,3.78
2023-06-25T10:52:02.301Z,3.67
2023-06-25T10:54:30.295Z,3.42
2023-06-25T10:57:07.451Z,3.53
2023-06-25T10:59:35.212Z,4.07
2023-06-25T11:02:13.995Z,3.15
2023-06-25T11:04:44.021Z,3.30
2023-06-25T11:07:12.673Z,3.38
2023-06-25T11:09:40.518Z,2.90
2023-06-25T11:12:09.253Z,3.08
2023-06-25T11:14:36.926Z,3.15
2023-06-25T11:17:04.890Z,3.30
2023-06-25T11:19:33.230Z,4.68
2023-06-25T11:22:06.465Z,3.42
2023-06-25T11:24:35.968Z,4.18
2023-06-25T11:27:04.014Z,3.80
2023-06-25T11:29:38.292Z,3.60
2023-06-25T11:32:09.228Z,2.83
2023-06-25T11:37:13.259Z,3.47
2023-06-25T11:39:45.352Z,3.25
2023-06-25T11:42:17.700Z,5.07
2023-06-25T11:44:46.260Z,2.80
2023-06-25T11:47:16.564Z,4.03
2023-06-25T11:49:53.903Z,2.65
2023-06-25T11:52:23.178Z,3.83
2023-06-25T11:54:51.381Z,4.03
2023-06-25T11:57:19.866Z,2.88
2023-06-25T11:59:47.705Z,3.75
2023-06-25T12:02:15.430Z,3.55
2023-06-25T12:04:43.149Z,2.95
2023-06-25T12:07:10.921Z,4.03
2023-06-25T12:09:39.938Z,3.95
2023-06-25T12:12:08.253Z,3.08
2023-06-25T12:14:36.056Z,4.03
2023-06-25T12:17:04.750Z,3.17
2023-06-25T12:19:32.577Z,3.33
2023-06-25T12:22:00.523Z,3.50
2023-06-25T12:24:28.247Z,2.35
2023-06-25T12:26:57.244Z,3.60
2023-06-25T12:29:24.932Z,3.50
2023-06-25T12:31:52.674Z,3.65
2023-06-25T12:34:20.458Z,3.58
2023-06-25T12:36:48.142Z,3.55
2023-06-25T12:39:15.874Z,2.58
2023-06-25T12:41:43.522Z,3.88
2023-06-25T12:44:12.557Z,5.00
2023-06-25T12:46:41.008Z,3.85
2023-06-25T12:49:08.731Z,3.15
2023-06-25T12:51:36.438Z,3.10
2023-06-25T12:54:04.245Z,3.80
2023-06-25T12:56:32.254Z,3.42
2023-06-25T12:58:59.923Z,2.95
2023-06-25T13:01:29.107Z,3.67
2023-06-25T13:03:56.826Z,3.10
2023-06-25T13:06:24.966Z,3.50
2023-06-25T13:08:52.682Z,3.83
2023-06-25T13:11:20.342Z,2.90
2023-06-25T13:13:48.039Z,3.03
2023-06-25T13:16:15.670Z,3.60
2023-06-25T13:18:44.657Z,4.43
2023-06-25T13:21:12.343Z,3.25
2023-06-25T13:23:40.010Z,3.80
2023-06-25T13:26:07.654Z,2.75
2023-06-25T13:28:35.381Z,3.72
2023-06-25T13:31:03.070Z,3.75
2023-06-25T13:33:30.783Z,3.53
2023-06-25T13:35:59.835Z,3.67
2023-06-25T13:38:27.549Z,5.22
2023-06-25T13:40:55.165Z,3.33
2023-06-25T13:43:22.887Z,3.20
2023-06-25T13:45:50.780Z,3.58
2023-06-25T13:48:18.454Z,3.00
2023-06-25T13:50:46.255Z,3.22
2023-06-25T13:53:15.318Z,3.65
2023-06-25T13:55:43.001Z,2.88
2023-06-25T13:58:10.651Z,2.80
2023-06-25T14:00:38.383Z,3.63
2023-06-25T14:03:13.448Z,3.10
2023-06-25T14:05:41.705Z,4.38
2023-06-25T14:08:09.406Z,3.67
2023-06-25T14:10:38.493Z,2.92
2023-06-25T14:13:06.297Z,3.37
2023-06-25T14:15:34.091Z,3.15
2023-06-25T14:18:01.868Z,3.28
2023-06-25T14:20:29.564Z,2.90
2023-06-25T14:23:01.205Z,3.45
2023-06-25T14:25:29.501Z,3.13
2023-06-25T14:27:58.918Z,2.45
2023-06-25T14:30:26.686Z,3.22
2023-06-25T14:32:54.579Z,2.95
2023-06-25T14:35:22.269Z,3.63
2023-06-25T14:37:49.998Z,3.10
2023-06-25T14:40:17.689Z,3.58
2023-06-25T14:42:45.340Z,3.80
2023-06-25T14:45:14.353Z,3.70
2023-06-25T14:47:42.007Z,3.28
2023-06-25T14:50:10.504Z,3.42
2023-06-25T14:52:38.105Z,3.17
2023-06-25T14:55:06.229Z,5.30
2023-06-25T14:57:34.018Z,3.25
2023-06-25T15:00:01.809Z,4.20
2023-06-25T15:02:31.156Z,4.45
2023-06-25T15:04:58.948Z,4.07
2023-06-25T15:07:26.765Z,3.22
2023-06-25T15:09:54.565Z,3.53
2023-06-25T15:12:22.228Z,4.13
2023-06-25T15:14:49.922Z,3.42
2023-06-25T15:17:17.599Z,3.60
2023-06-25T15:19:46.637Z,3.90
2023-06-25T15:22:14.626Z,5.80
2023-06-25T15:24:42.454Z,3.83
2023-06-25T15:27:10.023Z,4.00
2023-06-25T15:29:38.450Z,4.00
2023-06-25T15:32:06.797Z,3.60
2023-06-25T15:34:34.394Z,4.65
2023-06-25T15:37:04.181Z,3.22
2023-06-25T15:39:32.015Z,3.47
2023-06-25T15:41:59.651Z,4.43
2023-06-25T15:44:27.374Z,5.60
2023-06-25T15:46:55.030Z,3.45
2023-06-25T15:49:22.645Z,3.20
2023-06-25T15:51:50.326Z,4.00
2023-06-25T15:54:25.674Z,6.05
2023-06-25T15:56:54.074Z,3.47
2023-06-25T15:59:22.279Z,3.97
2023-06-25T16:01:50.039Z,3.95
2023-06-25T16:04:17.766Z,3.22
2023-06-25T16:06:45.478Z,3.42
2023-06-25T16:09:13.126Z,4.30
2023-06-25T16:11:42.108Z,4.05
2023-06-25T16:14:09.767Z,3.95
2023-06-25T16:16:37.454Z,3.10
2023-06-25T16:19:29.669Z,3.83
2023-06-25T16:21:52.689Z,3.38
2023-06-25T16:24:20.460Z,3.75
2023-06-25T16:26:49.619Z,3.88
2023-06-25T16:29:19.231Z,3.97
2023-06-25T16:31:49.151Z,4.72
2023-06-25T16:34:16.829Z,10.02
2023-06-25T16:36:44.452Z,7.63
2023-06-25T16:39:12.193Z,5.55
2023-06-25T16:41:39.888Z,2.90
2023-06-25T16:44:08.936Z,3.67
2023-06-25T16:46:36.852Z,3.45
2023-06-25T16:49:04.899Z,4.20
2023-06-25T16:51:32.598Z,3.83
2023-06-25T16:54:01.576Z,4.93
2023-06-25T16:56:30.122Z,3.60
2023-06-25T16:58:59.197Z,2.92
2023-06-25T17:01:28.236Z,4.82
2023-06-25T17:03:56.042Z,4.93
2023-06-25T17:06:23.750Z,5.30
2023-06-25T17:08:52.437Z,3.83
2023-06-25T17:11:20.133Z,4.10
2023-06-25T17:13:47.802Z,3.72
2023-06-25T17:16:15.477Z,4.13
2023-06-25T17:18:44.431Z,3.08
2023-06-25T17:21:12.066Z,3.92
2023-06-25T17:23:39.794Z,4.35
2023-06-25T17:26:08.472Z,4.30
2023-06-25T17:28:36.165Z,4.15
2023-06-25T17:31:03.825Z,4.70
2023-06-25T17:33:31.488Z,3.83
2023-06-25T17:36:00.584Z,5.13
2023-06-25T17:38:28.226Z,3.97
2023-06-25T17:40:55.883Z,4.47
2023-06-25T17:43:24.117Z,4.28
2023-06-25T17:45:52.868Z,4.45
2023-06-25T17:48:20.498Z,3.95
2023-06-25T17:50:48.232Z,4.43
2023-06-25T17:53:18.059Z,4.10
2023-06-25T17:55:47.737Z,4.57
2023-06-25T17:58:15.438Z,4.63
2023-06-25T18:00:44.089Z,4.05
2023-06-25T18:03:11.857Z,4.97
2023-06-25T18:05:39.787Z,5.75
2023-06-25T18:08:07.631Z,5.88
2023-06-25T18:10:36.567Z,7.50
2023-06-25T18:13:04.272Z,18.67
2023-06-25T18:15:39.813Z,16.60
2023-06-25T18:18:07.582Z,11.85
2023-06-25T18:20:35.348Z,11.70
2023-06-25T18:23:03.024Z,5.13
2023-06-25T18:25:30.840Z,5.47
2023-06-25T18:27:59.947Z,4.30
2023-06-25T18:30:27.655Z,4.32
2023-06-25T18:32:55.399Z,4.07
2023-06-25T18:35:23.745Z,4.93
2023-06-25T18:37:51.335Z,4.65
2023-06-25T18:40:19.038Z,5.28
2023-06-25T18:42:46.667Z,4.25
2023-06-25T18:45:15.819Z,4.90
2023-06-25T18:47:43.484Z,4.00
2023-06-25T18:50:11.150Z,4.88
2023-06-25T18:52:38.805Z,4.38
2023-06-25T18:55:07.250Z,4.80
2023-06-25T18:57:34.966Z,4.43
2023-06-25T19:00:02.673Z,4.60
2023-06-25T19:02:31.898Z,3.72
2023-06-25T19:05:00.370Z,4.38
2023-06-25T19:07:28.143Z,3.80
2023-06-25T19:09:56.067Z,4.25
2023-06-25T19:12:24.525Z,4.38
2023-06-25T19:14:52.270Z,4.38
2023-06-25T19:17:20.031Z,4.95
2023-06-25T19:19:49.121Z,4.63
2023-06-25T19:22:16.988Z,4.50
2023-06-25T19:24:44.654Z,4.38
2023-06-25T19:27:12.289Z,3.47
2023-06-25T19:29:39.985Z,4.35
2023-06-25T19:32:08.827Z,3.45
2023-06-25T19:34:36.670Z,4.45
2023-06-25T19:37:06.097Z,3.83
2023-06-25T19:39:33.812Z,3.85
2023-06-25T19:42:01.497Z,3.80
2023-06-25T19:44:29.109Z,3.80
2023-06-25T19:46:56.865Z,4.20
2023-06-25T19:49:24.548Z,3.92
2023-06-25T19:51:52.250Z,4.47
2023-06-25T19:54:21.235Z,4.18
2023-06-25T19:56:48.998Z,4.35
2023-06-25T19:59:16.709Z,5.28
2023-06-25T20:01:44.497Z,4.47
2023-06-25T20:04:12.258Z,4.00
2023-06-25T20:06:41.362Z,4.35
2023-06-25T20:09:09.753Z,4.05
2023-06-25T20:11:38.912Z,4.53
2023-06-25T20:14:06.605Z,4.13
2023-06-25T20:16:34.259Z,4.50
2023-06-25T20:19:01.933Z,4.18
2023-06-25T20:21:29.663Z,4.70
2023-06-25T20:23:57.573Z,3.95
2023-06-25T20:26:27.224Z,4.90
2023-06-25T20:28:56.666Z,4.90
2023-06-25T20:31:24.424Z,4.78
2023-06-25T20:33:52.233Z,5.30
2023-06-25T20:36:19.895Z,6.22
2023-06-25T20:38:47.502Z,5.47
2023-06-25T20:41:31.723Z,4.78
2023-06-25T20:44:02.864Z,4.40
2023-06-25T20:46:30.647Z,4.18
2023-06-25T20:48:58.401Z,4.90
2023-06-25T20:51:26.516Z,4.18
2023-06-25T20:53:54.191Z,4.53
2023-06-25T20:56:21.981Z,4.68
2023-06-25T20:58:49.647Z,5.03
2023-06-25T21:01:18.710Z,5.15
2023-06-25T21:03:46.427Z,5.18
2023-06-25T21:06:14.141Z,6.15
2023-06-25T21:08:42.936Z,4.88
2023-06-25T21:11:10.651Z,5.72
2023-06-25T21:13:38.575Z,6.22
2023-06-25T21:16:06.554Z,4.93
2023-06-25T21:18:35.634Z,4.95
2023-06-25T21:21:03.267Z,5.60
2023-06-25T21:23:30.884Z,5.65
2023-06-25T21:25:58.577Z,4.80
2023-06-25T21:28:26.203Z,6.03
2023-06-25T21:30:54.186Z,4.47
2023-06-25T21:33:21.845Z,7.97
2023-06-25T21:35:50.892Z,5.03
2023-06-25T21:38:18.524Z,5.00
2023-06-25T21:40:46.246Z,4.50
2023-06-25T21:43:13.851Z,5.22
2023-06-25T21:45:43.887Z,5.88
2023-06-25T21:48:11.610Z,5.13
2023-06-25T21:50:39.669Z,5.75
2023-06-25T21:53:10.618Z,4.80
2023-06-25T21:55:39.389Z,4.25
2023-06-25T21:58:07.324Z,4.63
2023-06-25T22:00:35.095Z,4.45
2023-06-25T22:03:03.022Z,4.82
2023-06-25T22:05:30.675Z,5.18
2023-06-25T22:07:58.318Z,5.57
2023-06-25T22:10:27.349Z,7.50
2023-06-25T22:12:55.000Z,5.90
2023-06-25T22:15:22.829Z,6.22
2023-06-25T22:17:50.963Z,5.10
2023-06-25T22:20:18.812Z,6.53
2023-06-25T22:22:46.533Z,5.40
2023-06-25T22:25:14.616Z,5.68
2023-06-25T22:27:51.892Z,5.45
2023-06-25T22:30:20.976Z,4.93
2023-06-25T22:32:49.459Z,5.10
2023-06-25T22:35:17.479Z,4.85
2023-06-25T22:37:45.482Z,4.30
2023-06-25T22:40:13.170Z,4.82
2023-06-25T22:42:40.845Z,4.55
2023-06-25T22:45:10.296Z,4.38
2023-06-25T22:47:40.113Z,5.35
2023-06-25T22:50:08.784Z,4.75
2023-06-25T22:52:36.507Z,5.95
2023-06-25T22:55:04.237Z,6.25
2023-06-25T22:57:31.885Z,4.63
2023-06-25T22:59:59.536Z,5.15
2023-06-25T23:02:28.662Z,5.55
2023-06-25T23:04:57.274Z,6.45
2023-06-25T23:07:25.126Z,5.35
2023-06-25T23:09:52.830Z,4.95
2023-06-25T23:12:20.518Z,5.10
2023-06-25T23:14:48.254Z,5.35
2023-06-25T23:17:16.096Z,5.28
2023-06-25T23:19:45.814Z,5.35
2023-06-25T23:22:14.496Z,5.43
2023-06-25T23:24:45.107Z,5.00
2023-06-25T23:27:13.529Z,5.32
2023-06-25T23:29:41.820Z,6.20
2023-06-25T23:32:12.766Z,4.72
2023-06-25T23:37:09.419Z,5.07
2023-06-25T23:39:37.728Z,5.07
2023-06-25T23:42:06.120Z,7.10
2023-06-25T23:44:34.143Z,5.07
2023-06-25T23:47:01.778Z,5.60
2023-06-25T23:49:29.446Z,5.07
2023-06-25T23:51:57.136Z,6.15
2023-06-25T23:54:26.121Z,5.43
2023-06-25T23:56:53.763Z,5.32
2023-06-25T23:59:21.430Z,8.05
